createdAt,value
2023-01-26T00:00:14.490Z,16.93
2023-01-26T00:03:03.224Z,16.92
2023-01-26T00:59:39.707Z,16.52
2023-01-26T01:02:09.423Z,16.44
2023-01-26T01:04:38.086Z,16.52
2023-01-26T01:07:06.954Z,16.48
2023-01-26T01:09:35.438Z,16.48
2023-01-26T01:12:04.560Z,16.44
2023-01-26T01:14:33.100Z,16.45
2023-01-26T01:17:01.916Z,16.43
2023-01-26T01:19:30.491Z,16.27
2023-01-26T01:21:59.400Z,16.40
2023-01-26T01:24:27.835Z,16.39
2023-01-26T01:26:57.908Z,16.37
2023-01-26T01:29:26.420Z,16.34
2023-01-26T01:31:56.597Z,16.34
2023-01-26T01:34:25.189Z,16.31
2023-01-26T01:36:54.066Z,16.30
2023-01-26T01:39:22.652Z,16.26
2023-01-26T01:41:51.481Z,16.28
2023-01-26T01:44:24.544Z,16.28
2023-01-26T01:47:15.309Z,16.26
2023-01-26T01:49:47.107Z,16.20
2023-01-26T01:52:30.562Z,16.24
2023-01-26T01:55:07.687Z,16.21
2023-01-26T01:57:59.097Z,16.19
2023-01-26T02:00:27.708Z,16.21
2023-01-26T02:03:15.138Z,16.20
2023-01-26T02:06:16.219Z,16.18
2023-01-26T02:08:55.679Z,16.17
2023-01-26T02:11:42.447Z,16.14
2023-01-26T02:14:12.729Z,16.14
2023-01-26T02:16:41.209Z,16.12
2023-01-26T02:19:19.268Z,16.13
2023-01-26T02:21:47.729Z,16.10
2023-01-26T02:24:32.714Z,16.10
2023-01-26T02:27:01.227Z,16.10
2023-01-26T02:29:31.718Z,16.09
2023-01-26T02:32:00.254Z,16.08
2023-01-26T02:34:29.538Z,16.07
2023-01-26T02:37:01.255Z,16.07
2023-01-26T02:39:57.764Z,16.02
2023-01-26T02:42:38.790Z,16.04
2023-01-26T02:45:13.189Z,15.98
2023-01-26T02:47:43.027Z,16.02
2023-01-26T02:50:12.242Z,15.98
2023-01-26T02:52:41.029Z,15.93
2023-01-26T02:55:29.028Z,15.96
2023-01-26T02:58:01.604Z,15.96
2023-01-26T03:00:37.702Z,15.95
2023-01-26T03:03:45.363Z,15.93
2023-01-26T03:06:16.578Z,15.90
2023-01-26T03:08:45.013Z,15.90
2023-01-26T03:11:13.862Z,15.89
2023-01-26T03:13:42.550Z,15.90
2023-01-26T03:16:12.153Z,15.88
2023-01-26T03:18:59.588Z,15.86
2023-01-26T03:21:47.106Z,15.86
2023-01-26T03:24:34.190Z,15.82
2023-01-26T03:27:28.070Z,15.84
2023-01-26T03:30:04.750Z,15.84
2023-01-26T03:32:34.150Z,15.83
2023-01-26T03:35:06.700Z,15.81
2023-01-26T03:37:37.166Z,15.80
2023-01-26T03:40:32.529Z,15.80
2023-01-26T03:43:27.817Z,15.78
2023-01-26T03:46:15.116Z,15.76
2023-01-26T03:49:04.057Z,15.76
2023-01-26T03:51:51.459Z,15.73
2023-01-26T03:54:38.878Z,15.71
2023-01-26T03:57:07.682Z,15.72
2023-01-26T03:59:39.537Z,15.73
2023-01-26T04:02:31.874Z,15.68
2023-01-26T04:05:21.129Z,15.71
2023-01-26T04:08:13.407Z,15.70
2023-01-26T04:10:42.196Z,15.66
2023-01-26T04:13:29.484Z,15.68
2023-01-26T04:16:23.991Z,15.65
2023-01-26T04:19:11.101Z,15.64
2023-01-26T04:21:40.033Z,15.64
2023-01-26T04:24:22.689Z,15.65
2023-01-26T04:26:56.420Z,15.63
2023-01-26T04:29:29.089Z,15.61
2023-01-26T04:31:57.816Z,15.60
2023-01-26T04:34:27.977Z,15.60
2023-01-26T04:36:57.219Z,15.59
2023-01-26T04:39:30.127Z,15.62
2023-01-26T04:41:59.008Z,15.66
2023-01-26T04:44:27.661Z,15.67
2023-01-26T04:46:56.648Z,15.79
2023-01-26T04:49:25.113Z,15.84
2023-01-26T04:51:54.362Z,15.97
2023-01-26T04:54:24.166Z,16.07
2023-01-26T04:56:54.210Z,16.19
2023-01-26T04:59:22.768Z,16.26
2023-01-26T05:01:54.217Z,16.29
2023-01-26T05:04:23.049Z,16.39
2023-01-26T05:06:52.009Z,16.53
2023-01-26T05:09:21.734Z,16.60
2023-01-26T05:12:20.086Z,16.75
2023-01-26T05:15:07.817Z,16.84
2023-01-26T05:17:55.256Z,16.96
2023-01-26T05:20:40.301Z,17.00
2023-01-26T05:23:35.217Z,17.10
2023-01-26T05:26:22.519Z,17.22
2023-01-26T05:29:08.258Z,17.27
2023-01-26T05:31:36.872Z,17.37
2023-01-26T05:34:05.796Z,17.41
2023-01-26T05:36:36.616Z,17.37
2023-01-26T05:39:05.532Z,17.55
2023-01-26T05:41:34.197Z,17.54
2023-01-26T05:44:31.827Z,17.51
2023-01-26T05:47:07.081Z,17.48
2023-01-26T05:49:39.246Z,17.37
2023-01-26T05:52:11.269Z,17.34
2023-01-26T05:54:41.827Z,17.34
2023-01-26T05:57:10.423Z,17.27
2023-01-26T05:59:43.251Z,17.21
2023-01-26T06:02:14.892Z,17.17
2023-01-26T06:04:46.476Z,17.18
2023-01-26T06:07:14.976Z,17.09
2023-01-26T06:09:49.029Z,17.06
2023-01-26T06:12:24.354Z,17.02
2023-01-26T06:15:05.629Z,16.98
2023-01-26T06:17:40.765Z,16.92
2023-01-26T06:20:12.847Z,16.89
2023-01-26T06:22:41.620Z,16.88
2023-01-26T06:25:10.548Z,16.87
2023-01-26T06:27:42.919Z,16.92
2023-01-26T06:30:19.269Z,16.92
2023-01-26T06:32:48.278Z,16.99
2023-01-26T06:35:17.411Z,17.06
2023-01-26T06:37:51.708Z,17.06
2023-01-26T06:40:20.862Z,17.10
2023-01-26T06:42:50.429Z,17.11
2023-01-26T06:45:22.200Z,17.07
2023-01-26T06:47:52.280Z,17.03
2023-01-26T06:50:26.668Z,16.93
2023-01-26T06:52:56.347Z,16.97
2023-01-26T06:55:57.588Z,16.91
2023-01-26T06:58:52.319Z,16.90
2023-01-26T07:01:59.341Z,16.83
2023-01-26T07:04:27.913Z,16.83
2023-01-26T07:06:56.670Z,16.81
2023-01-26T07:09:25.221Z,16.78
2023-01-26T07:11:55.075Z,16.75
2023-01-26T07:14:23.500Z,16.72
2023-01-26T07:16:52.328Z,16.69
2023-01-26T07:19:21.009Z,16.64
2023-01-26T07:21:49.930Z,16.59
2023-01-26T07:24:18.472Z,16.59
2023-01-26T07:26:47.398Z,16.56
2023-01-26T07:29:16.832Z,16.53
2023-01-26T07:31:45.866Z,16.51
2023-01-26T07:34:14.584Z,16.51
2023-01-26T07:36:46.041Z,16.47
2023-01-26T07:39:14.589Z,16.46
2023-01-26T07:41:43.510Z,16.44
2023-01-26T07:44:33.410Z,16.34
2023-01-26T07:47:02.211Z,16.39
2023-01-26T07:49:31.219Z,16.35
2023-01-26T07:52:00.029Z,16.33
2023-01-26T07:54:28.525Z,16.30
2023-01-26T07:56:57.289Z,16.28
2023-01-26T07:59:25.747Z,16.24
2023-01-26T08:01:54.570Z,16.17
2023-01-26T08:04:23.028Z,16.17
2023-01-26T08:06:52.755Z,16.17
2023-01-26T08:09:21.391Z,16.18
2023-01-26T08:11:51.421Z,16.16
2023-01-26T08:14:19.904Z,16.17
2023-01-26T08:16:48.823Z,16.15
2023-01-26T08:19:17.447Z,16.13
2023-01-26T08:21:46.349Z,16.14
2023-01-26T08:24:14.988Z,16.15
2023-01-26T08:26:43.781Z,16.12
2023-01-26T08:29:12.256Z,16.02
2023-01-26T08:31:41.773Z,16.05
2023-01-26T08:34:10.235Z,16.03
2023-01-26T08:36:40.104Z,15.93
2023-01-26T08:39:08.720Z,15.91
2023-01-26T08:41:37.690Z,15.93
2023-01-26T08:44:07.110Z,15.92
2023-01-26T08:46:36.054Z,15.89
2023-01-26T08:49:04.559Z,15.90
2023-01-26T08:51:33.440Z,15.89
2023-01-26T08:54:01.999Z,15.87
2023-01-26T08:56:30.928Z,15.85
2023-01-26T13:00:30.479Z,17.42
2023-01-26T13:03:30.231Z,17.41
2023-01-26T13:06:10.038Z,17.35
2023-01-26T13:08:38.600Z,17.32
2023-01-26T13:11:08.974Z,17.28
2023-01-26T13:13:57.141Z,17.25
2023-01-26T13:16:25.955Z,17.23
2023-01-26T13:19:01.427Z,17.19
2023-01-26T13:21:50.479Z,17.16
2023-01-26T13:24:19.003Z,17.12
2023-01-26T13:26:49.361Z,17.06
2023-01-26T13:29:33.190Z,17.09
2023-01-26T13:32:10.700Z,17.06
2023-01-26T13:34:48.942Z,17.08
2023-01-26T13:37:34.439Z,17.06
2023-01-26T13:40:06.813Z,17.06
2023-01-26T13:42:47.434Z,17.07
2023-01-26T13:45:22.603Z,17.02
2023-01-26T13:47:51.357Z,17.02
2023-01-26T13:50:33.530Z,17.09
2023-01-26T13:53:02.403Z,17.12
2023-01-26T13:55:32.067Z,17.07
2023-01-26T13:58:15.953Z,17.00
2023-01-26T14:01:07.771Z,16.89
2023-01-26T14:03:36.809Z,16.86
2023-01-26T14:06:18.003Z,16.76
2023-01-26T14:08:56.143Z,16.72
2023-01-26T14:11:27.024Z,16.73
2023-01-26T14:13:59.211Z,16.70
2023-01-26T14:16:37.487Z,16.62
2023-01-26T14:19:33.064Z,16.66
2023-01-26T14:22:01.858Z,16.60
2023-01-26T14:24:34.796Z,16.56
2023-01-26T14:27:04.057Z,16.56
2023-01-26T14:29:38.432Z,16.56
2023-01-26T14:32:12.844Z,16.50
2023-01-26T14:35:01.712Z,16.49
2023-01-26T14:37:30.230Z,16.48
2023-01-26T14:40:22.326Z,16.46
2023-01-26T14:42:52.723Z,16.45
2023-01-26T14:45:31.785Z,16.44
2023-01-26T14:48:07.427Z,16.44
2023-01-26T14:50:36.412Z,16.34
2023-01-26T14:53:07.274Z,16.38
2023-01-26T14:55:36.651Z,16.41
2023-01-26T14:58:31.623Z,16.39
2023-01-26T15:01:01.315Z,16.41
2023-01-26T15:03:37.283Z,16.43
2023-01-26T15:06:28.798Z,16.34
2023-01-26T15:09:06.920Z,16.29
2023-01-26T15:11:58.651Z,16.26
2023-01-26T15:14:39.079Z,16.23
2023-01-26T15:17:07.912Z,16.18
2023-01-26T15:19:41.149Z,16.16
2023-01-26T15:22:22.752Z,16.13
2023-01-26T15:25:20.124Z,16.12
2023-01-26T15:27:59.756Z,16.05
2023-01-26T15:30:33.658Z,16.06
2023-01-26T15:33:02.796Z,16.05
2023-01-26T15:35:33.456Z,15.99
2023-01-26T15:38:12.986Z,15.96
2023-01-26T15:40:41.475Z,15.99
2023-01-26T15:43:19.048Z,15.96
2023-01-26T15:46:01.410Z,15.95
2023-01-26T15:48:31.977Z,15.94
2023-01-26T15:51:00.425Z,15.91
2023-01-26T15:53:30.279Z,15.91
2023-01-26T15:56:00.948Z,15.89
2023-01-26T15:58:31.762Z,15.87
2023-01-26T16:01:00.489Z,15.85
2023-01-26T16:03:30.690Z,15.85
2023-01-26T16:05:59.125Z,15.84
2023-01-26T16:08:28.020Z,15.85
2023-01-26T16:10:57.154Z,15.93
2023-01-26T16:13:27.084Z,16.03
2023-01-26T16:15:55.748Z,16.11
2023-01-26T16:18:24.518Z,16.20
2023-01-26T16:20:52.889Z,16.24
2023-01-26T16:23:26.639Z,16.31
2023-01-26T16:25:55.630Z,16.41
2023-01-26T16:28:24.573Z,16.61
2023-01-26T16:30:53.044Z,16.69
2023-01-26T16:33:21.990Z,16.76
2023-01-26T16:35:50.381Z,16.81
2023-01-26T16:38:19.381Z,16.94
2023-01-26T16:40:48.557Z,16.92
2023-01-26T16:43:24.254Z,17.00
2023-01-26T16:45:53.559Z,17.12
2023-01-26T16:48:22.880Z,17.15
2023-01-26T16:50:53.886Z,17.28
2023-01-26T16:53:27.428Z,17.31
2023-01-26T16:55:56.229Z,17.46
2023-01-26T16:58:26.817Z,17.51
2023-01-26T17:00:55.733Z,17.53
2023-01-26T17:03:26.151Z,17.61
2023-01-26T17:05:56.503Z,17.60
2023-01-26T17:08:25.326Z,17.75
2023-01-26T17:11:02.135Z,17.77
2023-01-26T17:13:31.743Z,17.88
2023-01-26T17:16:00.334Z,17.98
2023-01-26T17:18:33.618Z,18.12
2023-01-26T17:21:03.513Z,18.08
2023-01-26T17:23:32.582Z,18.20
2023-01-26T17:26:01.360Z,18.35
2023-01-26T17:28:30.706Z,18.35
2023-01-26T17:31:01.215Z,18.33
2023-01-26T17:33:30.371Z,18.39
2023-01-26T17:36:03.146Z,18.49
2023-01-26T17:38:32.327Z,18.51
2023-01-26T17:41:00.907Z,18.55
2023-01-26T17:43:29.985Z,18.51
2023-01-26T17:46:11.390Z,18.36
2023-01-26T17:48:42.640Z,18.42
2023-01-26T17:51:19.095Z,18.43
2023-01-26T17:53:50.243Z,18.35
2023-01-26T17:56:20.831Z,18.25
2023-01-26T17:58:54.736Z,18.24
2023-01-26T18:01:26.893Z,18.20
2023-01-26T18:03:55.795Z,18.15
2023-01-26T18:06:24.375Z,18.11
2023-01-26T18:08:53.164Z,18.06
2023-01-26T18:11:21.936Z,17.99
2023-01-26T18:13:52.078Z,17.96
2023-01-26T18:16:21.188Z,17.95
2023-01-26T18:18:55.652Z,18.01
2023-01-26T18:21:27.567Z,18.02
2023-01-26T18:23:59.669Z,18.10
2023-01-26T18:26:31.852Z,18.09
2023-01-26T18:29:00.778Z,18.11
2023-01-26T18:31:37.542Z,18.24
2023-01-26T18:34:10.299Z,18.19
2023-01-26T18:36:38.818Z,18.28
2023-01-26T18:39:11.573Z,18.23
2023-01-26T18:41:40.992Z,18.31
2023-01-26T18:44:09.974Z,18.44
2023-01-26T18:46:38.687Z,18.45
2023-01-26T18:49:08.312Z,18.48
2023-01-26T18:51:36.823Z,18.44
2023-01-26T18:54:06.040Z,18.38
2023-01-26T18:56:35.552Z,18.35
2023-01-26T18:59:04.432Z,18.33
2023-01-26T19:01:33.183Z,18.31
2023-01-26T19:04:04.196Z,18.30
2023-01-26T19:06:32.981Z,18.25
2023-01-26T19:09:07.568Z,18.20
2023-01-26T19:11:38.189Z,18.19
2023-01-26T19:14:07.704Z,18.10
2023-01-26T19:16:36.352Z,18.05
2023-01-26T19:19:05.546Z,17.93
2023-01-26T19:21:34.373Z,17.94
2023-01-26T19:24:06.352Z,17.83
2023-01-26T19:26:35.009Z,17.86
2023-01-26T19:29:04.487Z,17.83
2023-01-26T19:31:34.038Z,17.81
2023-01-26T19:34:05.276Z,17.78
2023-01-26T19:36:36.451Z,17.74
2023-01-26T19:39:06.075Z,17.67
2023-01-26T19:41:34.971Z,17.65
2023-01-26T19:44:08.139Z,17.60
2023-01-26T19:46:36.692Z,17.57
2023-01-26T19:49:07.375Z,17.58
2023-01-26T19:51:35.916Z,17.52
2023-01-26T19:54:06.108Z,17.51
2023-01-26T19:56:38.172Z,17.49
2023-01-26T19:59:10.773Z,17.50
2023-01-26T20:01:39.533Z,17.57
2023-01-26T20:04:11.800Z,17.67
2023-01-26T20:06:40.653Z,17.78
2023-01-26T20:09:09.751Z,17.87
2023-01-26T20:11:38.390Z,17.95
2023-01-26T20:14:11.350Z,18.06
2023-01-26T20:16:40.109Z,18.15
2023-01-26T20:19:09.001Z,18.19
2023-01-26T20:21:39.219Z,18.28
2023-01-26T20:24:13.167Z,18.37
2023-01-26T20:26:44.524Z,18.31
2023-01-26T20:29:18.559Z,18.31
2023-01-26T20:31:47.782Z,18.30
2023-01-26T20:34:16.862Z,18.22
2023-01-26T20:36:45.765Z,18.24
2023-01-26T20:39:18.110Z,18.23
2023-01-26T20:41:46.693Z,18.16
2023-01-26T20:44:16.870Z,18.12
2023-01-26T20:46:45.390Z,18.07
2023-01-26T20:49:16.370Z,18.03
2023-01-26T20:51:45.610Z,18.03
2023-01-26T20:54:16.316Z,17.98
2023-01-26T20:56:49.223Z,17.94
2023-01-26T20:59:19.198Z,17.89
2023-01-26T21:01:47.809Z,17.86
2023-01-26T21:04:16.939Z,17.86
2023-01-26T21:06:45.393Z,17.84
2023-01-26T21:09:14.202Z,17.91
2023-01-26T21:11:43.791Z,17.96
2023-01-26T21:14:13.921Z,18.05
2023-01-26T21:16:43.014Z,18.06
2023-01-26T21:19:12.951Z,18.17
2023-01-26T21:21:41.360Z,18.13
2023-01-26T21:24:12.060Z,18.31
2023-01-26T21:26:40.619Z,18.31
2023-01-26T21:29:15.279Z,18.41
2023-01-26T21:31:46.019Z,18.43
2023-01-26T21:34:14.913Z,18.41
2023-01-26T21:36:43.430Z,18.41
2023-01-26T21:39:15.283Z,18.41
2023-01-26T21:41:56.258Z,18.34
2023-01-26T21:44:30.052Z,18.33
2023-01-26T21:47:04.123Z,18.24
2023-01-26T21:49:34.157Z,18.22
2023-01-26T21:52:21.531Z,18.19
2023-01-26T21:54:50.430Z,18.12
2023-01-26T21:57:37.301Z,18.09
2023-01-26T22:00:06.787Z,18.07
2023-01-26T22:02:35.286Z,17.99
2023-01-26T22:05:04.375Z,17.91
2023-01-26T22:07:32.915Z,17.83
2023-01-26T22:10:01.826Z,17.74
2023-01-26T22:12:30.610Z,17.63
2023-01-26T22:14:59.598Z,17.56
2023-01-26T22:17:28.177Z,17.55
2023-01-26T22:19:57.061Z,17.51
2023-01-26T22:22:25.999Z,17.45
2023-01-26T22:24:54.904Z,17.43
2023-01-26T22:27:23.385Z,17.39
2023-01-26T22:29:52.165Z,17.37
2023-01-26T22:32:20.617Z,17.31
2023-01-26T22:34:49.697Z,17.29
2023-01-26T22:37:18.097Z,17.26
2023-01-26T22:39:49.317Z,17.23
2023-01-26T22:42:19.688Z,17.19
2023-01-26T22:44:48.632Z,17.15
2023-01-26T22:47:17.076Z,17.08
2023-01-26T22:49:45.877Z,17.08
2023-01-26T22:52:14.681Z,17.07
2023-01-26T22:54:43.632Z,17.04
2023-01-26T22:57:12.051Z,17.00
2023-01-26T22:59:41.831Z,16.94
2023-01-26T23:02:10.325Z,16.93
2023-01-26T23:04:39.239Z,16.91
2023-01-26T23:07:07.738Z,16.83
2023-01-26T23:09:36.454Z,16.85
2023-01-26T23:12:05.165Z,16.83
2023-01-26T23:14:37.016Z,16.81
2023-01-26T23:17:08.657Z,16.76
2023-01-26T23:19:37.866Z,16.76
2023-01-26T23:22:06.409Z,16.75
2023-01-26T23:24:35.270Z,16.72
2023-01-26T23:27:03.697Z,16.68
2023-01-26T23:29:32.525Z,16.67
2023-01-26T23:32:01.045Z,16.57
2023-01-26T23:34:31.086Z,16.61
2023-01-26T23:36:59.636Z,16.59
2023-01-26T23:39:28.501Z,16.56
2023-01-26T23:41:58.403Z,16.51
2023-01-26T23:44:27.237Z,16.53
2023-01-26T23:46:55.812Z,16.51
2023-01-26T23:49:24.605Z,16.49
2023-01-26T23:51:53.024Z,16.47
2023-01-26T23:54:21.818Z,16.43
2023-01-26T23:56:50.289Z,16.44
2023-01-26T23:59:20.987Z,16.42
